sensor_id;sensor_type;location;lat;lon;timestamp;P1;durP1;ratioP1;P2;durP2;ratioP2
63738;SDS011;68816;45.558;10.070;2023-08-07T00:01:53;3.90;;;2.20;;
63738;SDS011;68816;45.558;10.070;2023-08-07T00:04:19;3.13;;;2.80;;
63738;SDS011;68816;45.558;10.070;2023-08-07T00:06:44;4.40;;;2.80;;
63738;SDS011;68816;45.558;10.070;2023-08-07T00:09:10;4.75;;;2.70;;
63738;SDS011;68816;45.558;10.070;2023-08-07T00:11:35;3.75;;;2.72;;
63738;SDS011;68816;45.558;10.070;2023-08-07T00:14:01;4.40;;;3.20;;
63738;SDS011;68816;45.558;10.070;2023-08-07T00:16:27;3.05;;;2.75;;
63738;SDS011;68816;45.558;10.070;2023-08-07T00:18:52;4.72;;;2.90;;
63738;SDS011;68816;45.558;10.070;2023-08-07T00:21:21;5.80;;;2.95;;
63738;SDS011;68816;45.558;10.070;2023-08-07T00:23:48;3.22;;;2.92;;
63738;SDS011;68816;45.558;10.070;2023-08-07T00:26:14;4.32;;;2.92;;
63738;SDS011;68816;45.558;10.070;2023-08-07T00:28:40;3.88;;;2.90;;
63738;SDS011;68816;45.558;10.070;2023-08-07T00:31:06;3.75;;;3.10;;
63738;SDS011;68816;45.558;10.070;2023-08-07T00:33:32;4.20;;;2.90;;
63738;SDS011;68816;45.558;10.070;2023-08-07T00:35:57;5.15;;;3.08;;
63738;SDS011;68816;45.558;10.070;2023-08-07T00:38:23;4.15;;;2.60;;
63738;SDS011;68816;45.558;10.070;2023-08-07T00:40:48;5.47;;;3.22;;
63738;SDS011;68816;45.558;10.070;2023-08-07T00:43:14;4.15;;;3.53;;
63738;SDS011;68816;45.558;10.070;2023-08-07T00:45:43;3.75;;;2.88;;
63738;SDS011;68816;45.558;10.070;2023-08-07T00:48:11;3.72;;;3.10;;
63738;SDS011;68816;45.558;10.070;2023-08-07T00:50:38;3.70;;;2.80;;
63738;SDS011;68816;45.558;10.070;2023-08-07T00:53:05;5.88;;;3.17;;
63738;SDS011;68816;45.558;10.070;2023-08-07T00:55:31;3.28;;;2.97;;
63738;SDS011;68816;45.558;10.070;2023-08-07T00:57:58;5.63;;;3.30;;
63738;SDS011;68816;45.558;10.070;2023-08-07T01:00:25;2.95;;;2.65;;
63738;SDS011;68816;45.558;10.070;2023-08-07T01:02:52;3.28;;;2.70;;
63738;SDS011;68816;45.558;10.070;2023-08-07T01:05:20;5.10;;;2.70;;
63738;SDS011;68816;45.558;10.070;2023-08-07T01:07:46;6.20;;;2.25;;
63738;SDS011;68816;45.558;10.070;2023-08-07T01:10:13;2.17;;;1.88;;
63738;SDS011;68816;45.558;10.070;2023-08-07T01:12:45;5.18;;;2.03;;
63738;SDS011;68816;45.558;10.070;2023-08-07T01:15:22;3.22;;;1.90;;
63738;SDS011;68816;45.558;10.070;2023-08-07T01:17:55;3.10;;;2.00;;
63738;SDS011;68816;45.558;10.070;2023-08-07T01:20:21;3.88;;;2.63;;
63738;SDS011;68816;45.558;10.070;2023-08-07T01:22:47;5.22;;;2.90;;
63738;SDS011;68816;45.558;10.070;2023-08-07T01:25:13;5.93;;;3.00;;
63738;SDS011;68816;45.558;10.070;2023-08-07T01:27:44;5.38;;;2.95;;
63738;SDS011;68816;45.558;10.070;2023-08-07T01:33:01;3.13;;;2.45;;
63738;SDS011;68816;45.558;10.070;2023-08-07T01:35:33;3.30;;;2.05;;
63738;SDS011;68816;45.558;10.070;2023-08-07T01:38:01;4.03;;;1.95;;
63738;SDS011;68816;45.558;10.070;2023-08-07T01:40:28;3.35;;;2.10;;
63738;SDS011;68816;45.558;10.070;2023-08-07T01:42:56;2.50;;;1.58;;
63738;SDS011;68816;45.558;10.070;2023-08-07T01:45:25;4.85;;;1.80;;
63738;SDS011;68816;45.558;10.070;2023-08-07T01:47:52;5.18;;;2.10;;
63738;SDS011;68816;45.558;10.070;2023-08-07T01:50:21;3.03;;;1.70;;
63738;SDS011;68816;45.558;10.070;2023-08-07T01:52:48;2.65;;;2.00;;
63738;SDS011;68816;45.558;10.070;2023-08-07T01:55:14;4.90;;;2.20;;
63738;SDS011;68816;45.558;10.070;2023-08-07T01:57:40;4.95;;;3.15;;
63738;SDS011;68816;45.558;10.070;2023-08-07T02:00:06;4.13;;;3.00;;
63738;SDS011;68816;45.558;10.070;2023-08-07T02:02:33;3.60;;;2.80;;
63738;SDS011;68816;45.558;10.070;2023-08-07T02:04:59;7.22;;;2.92;;
63738;SDS011;68816;45.558;10.070;2023-08-07T02:07:25;3.88;;;2.65;;
63738;SDS011;68816;45.558;10.070;2023-08-07T02:09:50;4.28;;;2.63;;
63738;SDS011;68816;45.558;10.070;2023-08-07T02:12:16;3.35;;;2.30;;
63738;SDS011;68816;45.558;10.070;2023-08-07T02:14:42;3.20;;;2.55;;
63738;SDS011;68816;45.558;10.070;2023-08-07T02:17:07;4.70;;;2.92;;
63738;SDS011;68816;45.558;10.070;2023-08-07T02:19:33;5.00;;;2.40;;
63738;SDS011;68816;45.558;10.070;2023-08-07T02:21:59;2.58;;;2.28;;
63738;SDS011;68816;45.558;10.070;2023-08-07T02:24:24;4.30;;;2.30;;
63738;SDS011;68816;45.558;10.070;2023-08-07T02:26:50;6.82;;;2.30;;
63738;SDS011;68816;45.558;10.070;2023-08-07T02:29:16;5.38;;;2.10;;
63738;SDS011;68816;45.558;10.070;2023-08-07T02:31:41;3.08;;;2.25;;
63738;SDS011;68816;45.558;10.070;2023-08-07T02:34:07;3.65;;;2.30;;
63738;SDS011;68816;45.558;10.070;2023-08-07T02:36:32;3.92;;;2.15;;
63738;SDS011;68816;45.558;10.070;2023-08-07T02:38:58;2.65;;;2.10;;
63738;SDS011;68816;45.558;10.070;2023-08-07T02:41:24;3.50;;;2.28;;
63738;SDS011;68816;45.558;10.070;2023-08-07T02:43:49;3.13;;;2.20;;
63738;SDS011;68816;45.558;10.070;2023-08-07T02:46:15;4.30;;;2.20;;
63738;SDS011;68816;45.558;10.070;2023-08-07T02:48:40;3.50;;;1.90;;
63738;SDS011;68816;45.558;10.070;2023-08-07T02:51:08;5.20;;;1.92;;
63738;SDS011;68816;45.558;10.070;2023-08-07T02:53:34;2.25;;;1.88;;
63738;SDS011;68816;45.558;10.070;2023-08-07T02:56:00;3.70;;;2.00;;
63738;SDS011;68816;45.558;10.070;2023-08-07T02:58:25;2.30;;;1.80;;
63738;SDS011;68816;45.558;10.070;2023-08-07T03:00:51;2.78;;;1.92;;
63738;SDS011;68816;45.558;10.070;2023-08-07T03:03:16;2.20;;;1.92;;
63738;SDS011;68816;45.558;10.070;2023-08-07T03:05:49;2.85;;;1.90;;
63738;SDS011;68816;45.558;10.070;2023-08-07T03:10:41;4.95;;;2.40;;
63738;SDS011;68816;45.558;10.070;2023-08-07T03:13:06;6.05;;;2.42;;
63738;SDS011;68816;45.558;10.070;2023-08-07T03:15:32;2.72;;;2.38;;
63738;SDS011;68816;45.558;10.070;2023-08-07T03:17:58;5.22;;;3.05;;
63738;SDS011;68816;45.558;10.070;2023-08-07T03:20:23;6.63;;;2.85;;
63738;SDS011;68816;45.558;10.070;2023-08-07T03:22:49;3.42;;;2.50;;
63738;SDS011;68816;45.558;10.070;2023-08-07T03:25:14;4.50;;;2.63;;
63738;SDS011;68816;45.558;10.070;2023-08-07T03:27:40;8.85;;;3.00;;
63738;SDS011;68816;45.558;10.070;2023-08-07T03:30:06;5.15;;;2.17;;
63738;SDS011;68816;45.558;10.070;2023-08-07T03:32:32;3.25;;;1.80;;
63738;SDS011;68816;45.558;10.070;2023-08-07T03:34:57;6.03;;;1.90;;
63738;SDS011;68816;45.558;10.070;2023-08-07T03:37:23;3.10;;;1.52;;
63738;SDS011;68816;45.558;10.070;2023-08-07T03:39:49;4.15;;;1.70;;
63738;SDS011;68816;45.558;10.070;2023-08-07T03:42:15;2.83;;;1.88;;
63738;SDS011;68816;45.558;10.070;2023-08-07T03:44:41;2.80;;;1.40;;
63738;SDS011;68816;45.558;10.070;2023-08-07T03:47:06;2.75;;;1.50;;
63738;SDS011;68816;45.558;10.070;2023-08-07T03:49:32;3.40;;;1.52;;
63738;SDS011;68816;45.558;10.070;2023-08-07T03:51:57;1.65;;;1.20;;
63738;SDS011;68816;45.558;10.070;2023-08-07T03:54:24;1.90;;;1.35;;
63738;SDS011;68816;45.558;10.070;2023-08-07T03:56:50;4.55;;;1.40;;
63738;SDS011;68816;45.558;10.070;2023-08-07T03:59:16;4.45;;;1.50;;
63738;SDS011;68816;45.558;10.070;2023-08-07T04:01:42;2.05;;;1.27;;
63738;SDS011;68816;45.558;10.070;2023-08-07T04:04:08;1.98;;;1.48;;
63738;SDS011;68816;45.558;10.070;2023-08-07T04:06:34;4.22;;;1.30;;
63738;SDS011;68816;45.558;10.070;2023-08-07T04:09:00;4.75;;;1.50;;
63738;SDS011;68816;45.558;10.070;2023-08-07T04:11:27;5.68;;;1.50;;
63738;SDS011;68816;45.558;10.070;2023-08-07T04:13:53;3.42;;;1.33;;
63738;SDS011;68816;45.558;10.070;2023-08-07T04:16:19;2.80;;;1.33;;
63738;SDS011;68816;45.558;10.070;2023-08-07T04:18:44;2.45;;;1.10;;
63738;SDS011;68816;45.558;10.070;2023-08-07T04:21:10;2.65;;;1.45;;
63738;SDS011;68816;45.558;10.070;2023-08-07T04:23:36;2.90;;;1.20;;
63738;SDS011;68816;45.558;10.070;2023-08-07T04:26:01;2.80;;;1.25;;
63738;SDS011;68816;45.558;10.070;2023-08-07T04:28:30;3.50;;;1.30;;
63738;SDS011;68816;45.558;10.070;2023-08-07T04:30:56;2.10;;;1.40;;
63738;SDS011;68816;45.558;10.070;2023-08-07T04:33:21;1.75;;;1.00;;
63738;SDS011;68816;45.558;10.070;2023-08-07T04:35:47;4.22;;;1.35;;
63738;SDS011;68816;45.558;10.070;2023-08-07T04:38:14;4.78;;;1.40;;
63738;SDS011;68816;45.558;10.070;2023-08-07T04:40:47;2.55;;;1.30;;
63738;SDS011;68816;45.558;10.070;2023-08-07T04:43:16;5.32;;;1.40;;
63738;SDS011;68816;45.558;10.070;2023-08-07T04:45:44;5.10;;;1.30;;
63738;SDS011;68816;45.558;10.070;2023-08-07T04:48:10;3.15;;;1.45;;
63738;SDS011;68816;45.558;10.070;2023-08-07T04:50:39;4.90;;;1.50;;
63738;SDS011;68816;45.558;10.070;2023-08-07T04:53:05;3.97;;;1.50;;
63738;SDS011;68816;45.558;10.070;2023-08-07T04:55:31;3.63;;;1.30;;
63738;SDS011;68816;45.558;10.070;2023-08-07T04:57:57;1.73;;;1.00;;
63738;SDS011;68816;45.558;10.070;2023-08-07T05:00:23;2.08;;;1.17;;
63738;SDS011;68816;45.558;10.070;2023-08-07T05:02:49;5.30;;;1.70;;
63738;SDS011;68816;45.558;10.070;2023-08-07T05:05:15;2.55;;;1.30;;
63738;SDS011;68816;45.558;10.070;2023-08-07T05:07:41;2.67;;;1.40;;
63738;SDS011;68816;45.558;10.070;2023-08-07T05:10:07;3.15;;;1.42;;
63738;SDS011;68816;45.558;10.070;2023-08-07T05:12:34;9.38;;;1.70;;
63738;SDS011;68816;45.558;10.070;2023-08-07T05:14:59;6.50;;;2.10;;
63738;SDS011;68816;45.558;10.070;2023-08-07T05:17:25;3.28;;;1.55;;
63738;SDS011;68816;45.558;10.070;2023-08-07T05:19:51;4.78;;;1.67;;
63738;SDS011;68816;45.558;10.070;2023-08-07T05:22:16;5.35;;;1.90;;
63738;SDS011;68816;45.558;10.070;2023-08-07T05:24:42;5.05;;;1.50;;
63738;SDS011;68816;45.558;10.070;2023-08-07T05:27:10;3.25;;;1.63;;
63738;SDS011;68816;45.558;10.070;2023-08-07T05:29:36;12.60;;;1.90;;
63738;SDS011;68816;45.558;10.070;2023-08-07T05:32:09;3.33;;;1.30;;
63738;SDS011;68816;45.558;10.070;2023-08-07T05:34:35;2.72;;;1.60;;
63738;SDS011;68816;45.558;10.070;2023-08-07T05:37:01;6.35;;;1.80;;
63738;SDS011;68816;45.558;10.070;2023-08-07T05:39:27;4.38;;;1.67;;
63738;SDS011;68816;45.558;10.070;2023-08-07T05:41:52;4.05;;;1.98;;
63738;SDS011;68816;45.558;10.070;2023-08-07T05:44:19;4.25;;;1.48;;
63738;SDS011;68816;45.558;10.070;2023-08-07T05:46:45;6.47;;;2.03;;
63738;SDS011;68816;45.558;10.070;2023-08-07T05:49:11;4.53;;;1.20;;
63738;SDS011;68816;45.558;10.070;2023-08-07T05:51:36;3.72;;;1.60;;
63738;SDS011;68816;45.558;10.070;2023-08-07T05:54:02;3.58;;;1.40;;
63738;SDS011;68816;45.558;10.070;2023-08-07T05:56:28;4.07;;;1.40;;
63738;SDS011;68816;45.558;10.070;2023-08-07T05:58:53;7.43;;;1.40;;
63738;SDS011;68816;45.558;10.070;2023-08-07T06:01:19;6.63;;;1.40;;
63738;SDS011;68816;45.558;10.070;2023-08-07T06:03:45;9.60;;;1.60;;
63738;SDS011;68816;45.558;10.070;2023-08-07T06:06:12;5.82;;;1.50;;
63738;SDS011;68816;45.558;10.070;2023-08-07T06:08:37;1.83;;;0.90;;
63738;SDS011;68816;45.558;10.070;2023-08-07T06:11:03;1.98;;;0.93;;
63738;SDS011;68816;45.558;10.070;2023-08-07T06:13:30;2.75;;;0.88;;
63738;SDS011;68816;45.558;10.070;2023-08-07T06:15:56;2.70;;;1.20;;
63738;SDS011;68816;45.558;10.070;2023-08-07T06:18:22;6.53;;;0.93;;
63738;SDS011;68816;45.558;10.070;2023-08-07T06:20:47;2.72;;;1.13;;
63738;SDS011;68816;45.558;10.070;2023-08-07T06:23:13;5.38;;;1.20;;
63738;SDS011;68816;45.558;10.070;2023-08-07T06:25:38;5.88;;;1.05;;
63738;SDS011;68816;45.558;10.070;2023-08-07T06:28:04;4.25;;;1.00;;
63738;SDS011;68816;45.558;10.070;2023-08-07T06:30:32;8.43;;;1.30;;
63738;SDS011;68816;45.558;10.070;2023-08-07T06:32:58;11.02;;;1.75;;
63738;SDS011;68816;45.558;10.070;2023-08-07T06:35:23;7.03;;;1.60;;
63738;SDS011;68816;45.558;10.070;2023-08-07T06:37:49;3.75;;;1.48;;
63738;SDS011;68816;45.558;10.070;2023-08-07T06:40:14;5.45;;;1.48;;
63738;SDS011;68816;45.558;10.070;2023-08-07T06:42:40;4.53;;;1.67;;
63738;SDS011;68816;45.558;10.070;2023-08-07T06:45:06;3.53;;;1.58;;
63738;SDS011;68816;45.558;10.070;2023-08-07T06:47:32;4.40;;;1.35;;
63738;SDS011;68816;45.558;10.070;2023-08-07T06:49:57;2.50;;;1.15;;
63738;SDS011;68816;45.558;10.070;2023-08-07T06:52:23;4.80;;;1.10;;
63738;SDS011;68816;45.558;10.070;2023-08-07T06:54:48;2.55;;;0.95;;
63738;SDS011;68816;45.558;10.070;2023-08-07T06:57:14;4.75;;;1.05;;
63738;SDS011;68816;45.558;10.070;2023-08-07T06:59:40;3.42;;;0.98;;
63738;SDS011;68816;45.558;10.070;2023-08-07T07:02:06;3.35;;;1.48;;
63738;SDS011;68816;45.558;10.070;2023-08-07T07:04:31;4.10;;;1.30;;
63738;SDS011;68816;45.558;10.070;2023-08-07T07:06:58;5.50;;;1.05;;
63738;SDS011;68816;45.558;10.070;2023-08-07T07:09:23;2.50;;;1.13;;
63738;SDS011;68816;45.558;10.070;2023-08-07T07:11:49;5.97;;;1.50;;
63738;SDS011;68816;45.558;10.070;2023-08-07T07:14:15;5.15;;;1.33;;
63738;SDS011;68816;45.558;10.070;2023-08-07T07:16:41;3.70;;;1.10;;
63738;SDS011;68816;45.558;10.070;2023-08-07T07:19:07;1.98;;;0.90;;
63738;SDS011;68816;45.558;10.070;2023-08-07T07:21:34;2.55;;;0.93;;
63738;SDS011;68816;45.558;10.070;2023-08-07T07:24:01;4.00;;;0.90;;
63738;SDS011;68816;45.558;10.070;2023-08-07T07:26:27;5.53;;;1.10;;
63738;SDS011;68816;45.558;10.070;2023-08-07T07:28:53;7.18;;;1.20;;
63738;SDS011;68816;45.558;10.070;2023-08-07T07:31:19;3.65;;;1.00;;
63738;SDS011;68816;45.558;10.070;2023-08-07T07:33:44;9.05;;;1.20;;
63738;SDS011;68816;45.558;10.070;2023-08-07T07:36:17;2.72;;;1.10;;
63738;SDS011;68816;45.558;10.070;2023-08-07T07:38:47;4.93;;;1.13;;
63738;SDS011;68816;45.558;10.070;2023-08-07T07:41:14;4.63;;;1.20;;
63738;SDS011;68816;45.558;10.070;2023-08-07T07:43:40;8.18;;;1.10;;
63738;SDS011;68816;45.558;10.070;2023-08-07T07:46:05;3.45;;;0.80;;
63738;SDS011;68816;45.558;10.070;2023-08-07T07:48:31;3.20;;;0.90;;
63738;SDS011;68816;45.558;10.070;2023-08-07T07:51:00;3.72;;;1.00;;
63738;SDS011;68816;45.558;10.070;2023-08-07T07:53:27;2.33;;;0.82;;
63738;SDS011;68816;45.558;10.070;2023-08-07T07:55:53;2.53;;;1.10;;
63738;SDS011;68816;45.558;10.070;2023-08-07T07:58:19;2.40;;;1.20;;
63738;SDS011;68816;45.558;10.070;2023-08-07T08:00:45;5.28;;;0.80;;
63738;SDS011;68816;45.558;10.070;2023-08-07T08:03:11;1.52;;;1.00;;
63738;SDS011;68816;45.558;10.070;2023-08-07T08:05:38;1.88;;;0.77;;
63738;SDS011;68816;45.558;10.070;2023-08-07T08:08:04;1.33;;;0.90;;
63738;SDS011;68816;45.558;10.070;2023-08-07T08:10:32;3.55;;;0.82;;
63738;SDS011;68816;45.558;10.070;2023-08-07T08:12:57;6.45;;;1.00;;
63738;SDS011;68816;45.558;10.070;2023-08-07T08:15:23;5.50;;;1.15;;
63738;SDS011;68816;45.558;10.070;2023-08-07T08:17:49;2.17;;;1.20;;
63738;SDS011;68816;45.558;10.070;2023-08-07T08:20:15;2.25;;;0.98;;
63738;SDS011;68816;45.558;10.070;2023-08-07T08:22:43;3.72;;;0.90;;
63738;SDS011;68816;45.558;10.070;2023-08-07T08:25:09;5.80;;;1.13;;
63738;SDS011;68816;45.558;10.070;2023-08-07T08:27:37;3.00;;;1.15;;
63738;SDS011;68816;45.558;10.070;2023-08-07T08:30:03;5.60;;;1.30;;
63738;SDS011;68816;45.558;10.070;2023-08-07T08:32:29;3.92;;;1.42;;
63738;SDS011;68816;45.558;10.070;2023-08-07T08:34:55;6.90;;;1.40;;
63738;SDS011;68816;45.558;10.070;2023-08-07T08:37:21;6.80;;;1.70;;
63738;SDS011;68816;45.558;10.070;2023-08-07T08:39:47;7.10;;;1.40;;
63738;SDS011;68816;45.558;10.070;2023-08-07T08:42:13;7.97;;;1.20;;
63738;SDS011;68816;45.558;10.070;2023-08-07T08:45:01;6.80;;;1.50;;
63738;SDS011;68816;45.558;10.070;2023-08-07T08:47:28;7.10;;;1.45;;
63738;SDS011;68816;45.558;10.070;2023-08-07T08:50:06;6.03;;;1.23;;
63738;SDS011;68816;45.558;10.070;2023-08-07T08:52:35;4.50;;;1.55;;
63738;SDS011;68816;45.558;10.070;2023-08-07T08:55:02;8.88;;;1.40;;
63738;SDS011;68816;45.558;10.070;2023-08-07T08:57:28;6.47;;;1.17;;
63738;SDS011;68816;45.558;10.070;2023-08-07T08:59:56;7.68;;;1.10;;
63738;SDS011;68816;45.558;10.070;2023-08-07T09:02:22;1.13;;;0.60;;
63738;SDS011;68816;45.558;10.070;2023-08-07T09:04:48;1.65;;;0.50;;
63738;SDS011;68816;45.558;10.070;2023-08-07T09:07:14;1.10;;;0.40;;
63738;SDS011;68816;45.558;10.070;2023-08-07T09:09:43;0.75;;;0.50;;
63738;SDS011;68816;45.558;10.070;2023-08-07T09:12:16;2.05;;;0.40;;
63738;SDS011;68816;45.558;10.070;2023-08-07T09:14:43;1.10;;;0.40;;
63738;SDS011;68816;45.558;10.070;2023-08-07T09:17:12;0.98;;;0.50;;
63738;SDS011;68816;45.558;10.070;2023-08-07T09:19:40;1.40;;;0.50;;
63738;SDS011;68816;45.558;10.070;2023-08-07T09:22:05;1.15;;;0.60;;
63738;SDS011;68816;45.558;10.070;2023-08-07T09:24:32;1.13;;;0.60;;
63738;SDS011;68816;45.558;10.070;2023-08-07T09:26:57;1.25;;;0.70;;
63738;SDS011;68816;45.558;10.070;2023-08-07T09:29:24;0.40;;;0.30;;
63738;SDS011;68816;45.558;10.070;2023-08-07T09:31:49;1.60;;;0.47;;
63738;SDS011;68816;45.558;10.070;2023-08-07T09:34:15;0.50;;;0.40;;
63738;SDS011;68816;45.558;10.070;2023-08-07T09:36:45;2.35;;;0.40;;
63738;SDS011;68816;45.558;10.070;2023-08-07T09:39:10;1.00;;;0.40;;
63738;SDS011;68816;45.558;10.070;2023-08-07T09:41:36;1.10;;;0.40;;
63738;SDS011;68816;45.558;10.070;2023-08-07T09:44:09;1.98;;;0.65;;
63738;SDS011;68816;45.558;10.070;2023-08-07T09:46:41;1.88;;;0.50;;
63738;SDS011;68816;45.558;10.070;2023-08-07T09:49:10;0.80;;;0.40;;
63738;SDS011;68816;45.558;10.070;2023-08-07T09:51:43;0.90;;;0.43;;
63738;SDS011;68816;45.558;10.070;2023-08-07T09:54:11;1.00;;;0.60;;
63738;SDS011;68816;45.558;10.070;2023-08-07T09:56:37;0.40;;;0.30;;
63738;SDS011;68816;45.558;10.070;2023-08-07T09:59:04;0.93;;;0.30;;
63738;SDS011;68816;45.558;10.070;2023-08-07T10:01:31;1.23;;;0.40;;
63738;SDS011;68816;45.558;10.070;2023-08-07T10:03:57;1.52;;;0.60;;
63738;SDS011;68816;45.558;10.070;2023-08-07T10:06:24;1.33;;;0.75;;
63738;SDS011;68816;45.558;10.070;2023-08-07T10:08:50;0.55;;;0.43;;
63738;SDS011;68816;45.558;10.070;2023-08-07T10:11:16;0.40;;;0.40;;
63738;SDS011;68816;45.558;10.070;2023-08-07T10:13:42;0.32;;;0.32;;
63738;SDS011;68816;45.558;10.070;2023-08-07T10:16:08;1.55;;;0.40;;
63738;SDS011;68816;45.558;10.070;2023-08-07T10:18:35;0.60;;;0.32;;
63738;SDS011;68816;45.558;10.070;2023-08-07T10:21:03;0.68;;;0.40;;
63738;SDS011;68816;45.558;10.070;2023-08-07T10:23:30;1.02;;;0.40;;
63738;SDS011;68816;45.558;10.070;2023-08-07T10:26:03;0.65;;;0.40;;
63738;SDS011;68816;45.558;10.070;2023-08-07T10:28:31;0.70;;;0.30;;
63738;SDS011;68816;45.558;10.070;2023-08-07T10:31:03;0.68;;;0.40;;
63738;SDS011;68816;45.558;10.070;2023-08-07T10:33:30;1.55;;;0.50;;
63738;SDS011;68816;45.558;10.070;2023-08-07T10:35:57;0.40;;;0.30;;
63738;SDS011;68816;45.558;10.070;2023-08-07T10:38:25;0.73;;;0.40;;
63738;SDS011;68816;45.558;10.070;2023-08-07T10:43:39;1.15;;;0.30;;
63738;SDS011;68816;45.558;10.070;2023-08-07T10:46:05;1.30;;;0.52;;
63738;SDS011;68816;45.558;10.070;2023-08-07T10:48:38;1.08;;;0.40;;
63738;SDS011;68816;45.558;10.070;2023-08-07T10:55:57;0.70;;;0.47;;
63738;SDS011;68816;45.558;10.070;2023-08-07T10:58:34;1.10;;;0.60;;
63738;SDS011;68816;45.558;10.070;2023-08-07T11:03:54;0.40;;;0.35;;
63738;SDS011;68816;45.558;10.070;2023-08-07T11:06:21;0.35;;;0.25;;
63738;SDS011;68816;45.558;10.070;2023-08-07T11:08:49;0.60;;;0.43;;
63738;SDS011;68816;45.558;10.070;2023-08-07T11:11:15;0.60;;;0.38;;
63738;SDS011;68816;45.558;10.070;2023-08-07T11:13:41;0.50;;;0.40;;
63738;SDS011;68816;45.558;10.070;2023-08-07T11:16:06;0.85;;;0.50;;
63738;SDS011;68816;45.558;10.070;2023-08-07T11:18:32;0.35;;;0.22;;
63738;SDS011;68816;45.558;10.070;2023-08-07T11:21:00;0.52;;;0.30;;
63738;SDS011;68816;45.558;10.070;2023-08-07T11:23:26;0.70;;;0.50;;
63738;SDS011;68816;45.558;10.070;2023-08-07T11:25:53;0.45;;;0.30;;
63738;SDS011;68816;45.558;10.070;2023-08-07T11:28:20;0.63;;;0.40;;
63738;SDS011;68816;45.558;10.070;2023-08-07T11:30:48;1.23;;;0.40;;
63738;SDS011;68816;45.558;10.070;2023-08-07T11:33:17;0.40;;;0.30;;
63738;SDS011;68816;45.558;10.070;2023-08-07T11:35:43;1.20;;;0.40;;
63738;SDS011;68816;45.558;10.070;2023-08-07T11:38:09;1.38;;;0.60;;
63738;SDS011;68816;45.558;10.070;2023-08-07T11:40:35;0.60;;;0.40;;
63738;SDS011;68816;45.558;10.070;2023-08-07T11:43:01;0.45;;;0.38;;
63738;SDS011;68816;45.558;10.070;2023-08-07T11:45:27;4.80;;;0.50;;
63738;SDS011;68816;45.558;10.070;2023-08-07T11:47:53;0.93;;;0.50;;
63738;SDS011;68816;45.558;10.070;2023-08-07T11:50:21;0.40;;;0.35;;
63738;SDS011;68816;45.558;10.070;2023-08-07T11:52:47;0.70;;;0.50;;
63738;SDS011;68816;45.558;10.070;2023-08-07T11:55:17;0.73;;;0.40;;
63738;SDS011;68816;45.558;10.070;2023-08-07T11:57:45;1.85;;;0.63;;
63738;SDS011;68816;45.558;10.070;2023-08-07T12:00:12;1.55;;;0.43;;
63738;SDS011;68816;45.558;10.070;2023-08-07T12:02:44;0.50;;;0.38;;
63738;SDS011;68816;45.558;10.070;2023-08-07T12:05:12;0.55;;;0.40;;
63738;SDS011;68816;45.558;10.070;2023-08-07T12:07:39;0.47;;;0.43;;
63738;SDS011;68816;45.558;10.070;2023-08-07T12:10:08;1.35;;;0.40;;
63738;SDS011;68816;45.558;10.070;2023-08-07T12:12:37;0.73;;;0.47;;
63738;SDS011;68816;45.558;10.070;2023-08-07T12:15:07;0.95;;;0.60;;
63738;SDS011;68816;45.558;10.070;2023-08-07T12:17:33;1.02;;;0.60;;
63738;SDS011;68816;45.558;10.070;2023-08-07T12:20:00;2.53;;;0.65;;
63738;SDS011;68816;45.558;10.070;2023-08-07T12:22:28;1.15;;;0.32;;
63738;SDS011;68816;45.558;10.070;2023-08-07T12:24:54;0.50;;;0.50;;
63738;SDS011;68816;45.558;10.070;2023-08-07T12:27:20;0.43;;;0.40;;
63738;SDS011;68816;45.558;10.070;2023-08-07T12:29:45;1.75;;;0.50;;
63738;SDS011;68816;45.558;10.070;2023-08-07T12:32:11;1.23;;;0.50;;
63738;SDS011;68816;45.558;10.070;2023-08-07T12:34:37;1.13;;;0.70;;
63738;SDS011;68816;45.558;10.070;2023-08-07T12:37:06;0.98;;;0.50;;
63738;SDS011;68816;45.558;10.070;2023-08-07T12:39:31;1.13;;;0.60;;
63738;SDS011;68816;45.558;10.070;2023-08-07T12:41:57;2.85;;;0.50;;
63738;SDS011;68816;45.558;10.070;2023-08-07T12:44:23;0.38;;;0.38;;
63738;SDS011;68816;45.558;10.070;2023-08-07T12:46:49;0.65;;;0.30;;
63738;SDS011;68816;45.558;10.070;2023-08-07T12:49:15;0.60;;;0.47;;
63738;SDS011;68816;45.558;10.070;2023-08-07T12:51:40;0.80;;;0.57;;
63738;SDS011;68816;45.558;10.070;2023-08-07T12:54:06;0.50;;;0.43;;
63738;SDS011;68816;45.558;10.070;2023-08-07T12:56:32;0.73;;;0.60;;
63738;SDS011;68816;45.558;10.070;2023-08-07T12:58:57;0.98;;;0.45;;
63738;SDS011;68816;45.558;10.070;2023-08-07T13:01:23;2.25;;;0.50;;
63738;SDS011;68816;45.558;10.070;2023-08-07T13:03:48;0.95;;;0.47;;
63738;SDS011;68816;45.558;10.070;2023-08-07T13:06:14;0.85;;;0.43;;
63738;SDS011;68816;45.558;10.070;2023-08-07T13:08:40;0.80;;;0.50;;
63738;SDS011;68816;45.558;10.070;2023-08-07T13:11:06;0.85;;;0.40;;
63738;SDS011;68816;45.558;10.070;2023-08-07T13:13:31;0.95;;;0.50;;
63738;SDS011;68816;45.558;10.070;2023-08-07T13:15:57;1.00;;;0.70;;
63738;SDS011;68816;45.558;10.070;2023-08-07T13:18:24;0.77;;;0.40;;
63738;SDS011;68816;45.558;10.070;2023-08-07T13:20:49;1.70;;;0.63;;
63738;SDS011;68816;45.558;10.070;2023-08-07T13:23:15;0.55;;;0.40;;
63738;SDS011;68816;45.558;10.070;2023-08-07T13:25:40;2.65;;;0.40;;
63738;SDS011;68816;45.558;10.070;2023-08-07T13:28:06;1.85;;;0.70;;
63738;SDS011;68816;45.558;10.070;2023-08-07T13:30:35;0.73;;;0.60;;
63738;SDS011;68816;45.558;10.070;2023-08-07T13:33:01;1.10;;;0.43;;
63738;SDS011;68816;45.558;10.070;2023-08-07T13:35:26;0.52;;;0.43;;
63738;SDS011;68816;45.558;10.070;2023-08-07T13:37:52;0.60;;;0.50;;
63738;SDS011;68816;45.558;10.070;2023-08-07T13:40:18;0.70;;;0.60;;
63738;SDS011;68816;45.558;10.070;2023-08-07T13:42:43;0.93;;;0.52;;
63738;SDS011;68816;45.558;10.070;2023-08-07T13:45:11;0.90;;;0.50;;
63738;SDS011;68816;45.558;10.070;2023-08-07T13:47:38;0.60;;;0.43;;
63738;SDS011;68816;45.558;10.070;2023-08-07T13:50:04;0.65;;;0.45;;
63738;SDS011;68816;45.558;10.070;2023-08-07T13:52:32;0.43;;;0.40;;
63738;SDS011;68816;45.558;10.070;2023-08-07T13:54:58;1.00;;;0.50;;
63738;SDS011;68816;45.558;10.070;2023-08-07T13:57:24;2.08;;;0.40;;
63738;SDS011;68816;45.558;10.070;2023-08-07T13:59:50;0.75;;;0.50;;
63738;SDS011;68816;45.558;10.070;2023-08-07T14:02:15;0.80;;;0.50;;
63738;SDS011;68816;45.558;10.070;2023-08-07T14:04:41;1.20;;;0.50;;
63738;SDS011;68816;45.558;10.070;2023-08-07T14:07:10;1.35;;;0.50;;
63738;SDS011;68816;45.558;10.070;2023-08-07T14:09:37;3.88;;;0.52;;
63738;SDS011;68816;45.558;10.070;2023-08-07T14:12:02;2.90;;;0.70;;
63738;SDS011;68816;45.558;10.070;2023-08-07T14:14:28;3.47;;;0.70;;
63738;SDS011;68816;45.558;10.070;2023-08-07T14:16:54;1.15;;;0.65;;
63738;SDS011;68816;45.558;10.070;2023-08-07T14:19:22;2.33;;;0.60;;
63738;SDS011;68816;45.558;10.070;2023-08-07T14:21:49;0.90;;;0.70;;
63738;SDS011;68816;45.558;10.070;2023-08-07T14:24:15;0.82;;;0.60;;
63738;SDS011;68816;45.558;10.070;2023-08-07T14:26:42;1.45;;;0.55;;
63738;SDS011;68816;45.558;10.070;2023-08-07T14:29:08;0.80;;;0.57;;
63738;SDS011;68816;45.558;10.070;2023-08-07T14:31:33;1.02;;;0.65;;
63738;SDS011;68816;45.558;10.070;2023-08-07T14:33:59;1.02;;;0.80;;
63738;SDS011;68816;45.558;10.070;2023-08-07T14:36:25;0.73;;;0.52;;
63738;SDS011;68816;45.558;10.070;2023-08-07T14:38:50;1.10;;;0.60;;
63738;SDS011;68816;45.558;10.070;2023-08-07T14:41:17;1.95;;;0.63;;
63738;SDS011;68816;45.558;10.070;2023-08-07T14:43:43;1.02;;;0.70;;
63738;SDS011;68816;45.558;10.070;2023-08-07T14:46:10;3.90;;;0.70;;